createdAt,value
2023-06-30T00:00:26.997Z,20.43
2023-06-30T00:02:54.007Z,20.39
2023-06-30T00:05:21.130Z,20.30
2023-06-30T00:07:48.490Z,20.42
2023-06-30T00:10:15.386Z,20.14
2023-06-30T00:12:42.291Z,20.02
2023-06-30T00:15:09.524Z,20.18
2023-06-30T00:17:36.813Z,20.09
2023-06-30T00:20:07.277Z,20.09
2023-06-30T00:22:37.739Z,20.05
2023-06-30T00:25:05.792Z,19.96
2023-06-30T00:27:33.165Z,19.66
2023-06-30T00:30:00.079Z,19.87
2023-06-30T00:32:29.153Z,19.57
2023-06-30T00:34:56.045Z,19.73
2023-06-30T00:37:23.045Z,19.51
2023-06-30T00:39:54.907Z,19.66
2023-06-30T00:42:23.598Z,19.67
2023-06-30T00:44:50.530Z,19.69
2023-06-30T00:47:17.920Z,19.65
2023-06-30T00:49:45.473Z,19.70
2023-06-30T00:52:13.222Z,19.67
2023-06-30T00:54:40.528Z,19.73
2023-06-30T00:57:08.135Z,19.79
2023-06-30T00:59:35.120Z,19.82
2023-06-30T01:05:14.551Z,19.73
2023-06-30T01:07:52.546Z,19.68
2023-06-30T01:10:24.216Z,19.64
2023-06-30T01:12:52.087Z,19.71
2023-06-30T01:15:19.945Z,19.56
2023-06-30T01:17:51.520Z,19.59
2023-06-30T01:20:22.400Z,19.62
2023-06-30T01:22:55.866Z,19.67
2023-06-30T01:25:29.837Z,19.71
2023-06-30T01:27:57.641Z,19.62
2023-06-30T01:30:25.342Z,19.53
2023-06-30T01:32:56.485Z,19.56
2023-06-30T01:35:24.628Z,19.53
2023-06-30T01:37:52.318Z,19.66
2023-06-30T01:40:19.619Z,19.48
2023-06-30T01:42:48.933Z,19.48
2023-06-30T01:45:17.834Z,19.40
2023-06-30T01:47:45.148Z,19.48
2023-06-30T01:50:12.712Z,19.41
2023-06-30T01:52:39.845Z,19.37
2023-06-30T01:55:07.260Z,19.37
2023-06-30T01:57:34.298Z,19.25
2023-06-30T02:00:01.658Z,19.24
2023-06-30T02:02:28.645Z,19.22
2023-06-30T02:04:55.616Z,19.22
2023-06-30T02:07:32.025Z,19.23
2023-06-30T02:09:59.169Z,19.21
2023-06-30T02:12:32.454Z,19.19
2023-06-30T02:14:59.512Z,19.00
2023-06-30T02:18:14.928Z,19.15
2023-06-30T02:20:41.830Z,19.03
2023-06-30T02:23:08.724Z,18.95
2023-06-30T02:25:35.752Z,18.99
2023-06-30T02:28:02.640Z,19.10
2023-06-30T02:30:29.671Z,19.14
2023-06-30T02:32:56.620Z,19.01
2023-06-30T02:35:24.269Z,19.07
2023-06-30T02:37:51.470Z,19.01
2023-06-30T02:40:18.436Z,18.90
2023-06-30T02:42:45.464Z,18.96
2023-06-30T02:45:12.440Z,19.01
2023-06-30T02:47:40.337Z,18.91
2023-06-30T02:50:07.771Z,19.02
2023-06-30T02:52:34.675Z,19.02
2023-06-30T02:55:01.781Z,19.02
2023-06-30T02:57:28.703Z,18.72
2023-06-30T02:59:55.612Z,18.76
2023-06-30T03:02:35.634Z,18.87
2023-06-30T03:05:02.825Z,18.69
2023-06-30T03:07:29.782Z,18.74
2023-06-30T03:09:56.844Z,18.82
2023-06-30T03:12:23.804Z,18.74
2023-06-30T03:14:50.954Z,18.65
2023-06-30T03:17:17.927Z,18.53
2023-06-30T03:19:44.847Z,18.72
2023-06-30T03:22:11.807Z,18.66
2023-06-30T03:24:38.725Z,18.57
2023-06-30T03:27:06.070Z,18.50
2023-06-30T03:29:33.009Z,18.36
2023-06-30T03:32:00.134Z,18.19
2023-06-30T03:34:27.069Z,18.30
2023-06-30T03:36:54.022Z,18.68
2023-06-30T03:39:20.976Z,19.00
2023-06-30T03:41:48.808Z,19.50
2023-06-30T03:44:38.846Z,20.07
2023-06-30T03:47:06.575Z,20.61
2023-06-30T04:03:52.646Z,23.69
2023-06-30T04:06:19.772Z,24.38
2023-06-30T04:08:47.127Z,24.64
2023-06-30T04:11:14.467Z,24.73
2023-06-30T04:13:41.337Z,25.08
2023-06-30T04:16:09.017Z,25.14
2023-06-30T04:18:36.042Z,25.44
2023-06-30T04:21:02.973Z,25.82
2023-06-30T04:23:29.969Z,26.48
2023-06-30T04:25:56.942Z,27.02
2023-06-30T04:28:23.808Z,27.54
2023-06-30T04:30:50.769Z,27.89
2023-06-30T04:33:17.714Z,28.13
2023-06-30T04:35:47.686Z,28.60
2023-06-30T04:38:14.884Z,29.05
2023-06-30T04:40:41.827Z,29.45
2023-06-30T04:43:13.891Z,29.63
2023-06-30T04:45:40.983Z,29.58
2023-06-30T04:48:08.937Z,29.39
2023-06-30T04:50:37.105Z,29.19
2023-06-30T04:53:04.032Z,29.13
2023-06-30T04:55:31.037Z,29.21
2023-06-30T04:57:58.035Z,28.96
2023-06-30T05:00:25.936Z,28.87
2023-06-30T05:02:52.948Z,29.04
2023-06-30T05:05:20.189Z,29.31
2023-06-30T05:07:47.952Z,29.27
2023-06-30T05:10:15.022Z,29.57
2023-06-30T05:12:41.922Z,29.73
2023-06-30T05:15:09.470Z,28.95
2023-06-30T05:17:36.786Z,27.88
2023-06-30T05:20:06.589Z,27.52
2023-06-30T05:22:33.506Z,26.90
2023-06-30T05:25:00.398Z,25.95
2023-06-30T05:27:27.335Z,26.22
2023-06-30T05:29:54.286Z,25.88
2023-06-30T05:32:21.274Z,26.46
2023-06-30T05:34:48.206Z,25.98
2023-06-30T05:37:15.322Z,26.12
2023-06-30T05:39:42.299Z,25.48
2023-06-30T05:42:09.442Z,25.77
2023-06-30T05:44:36.703Z,26.38
2023-06-30T05:47:03.842Z,26.28
2023-06-30T05:49:33.361Z,26.95
2023-06-30T05:52:00.211Z,26.80
2023-06-30T05:54:27.149Z,27.46
2023-06-30T05:56:54.026Z,27.29
2023-06-30T05:59:21.010Z,27.92
2023-06-30T06:01:47.962Z,27.80
2023-06-30T06:04:14.968Z,27.73
2023-06-30T06:06:42.056Z,27.85
2023-06-30T06:09:09.024Z,27.85
2023-06-30T06:11:35.861Z,27.79
2023-06-30T06:14:02.846Z,28.29
2023-06-30T06:16:29.805Z,28.00
2023-06-30T06:18:57.327Z,28.99
2023-06-30T06:21:28.775Z,29.40
2023-06-30T06:24:05.129Z,28.16
2023-06-30T06:26:32.161Z,28.01
2023-06-30T06:28:59.499Z,29.38
2023-06-30T06:31:31.125Z,29.41
2023-06-30T06:33:58.286Z,29.23
2023-06-30T06:36:25.278Z,30.27
2023-06-30T06:38:52.356Z,30.47
2023-06-30T06:41:19.312Z,30.77
2023-06-30T06:43:46.540Z,31.12
2023-06-30T06:46:14.564Z,31.82
2023-06-30T06:48:41.813Z,32.13
2023-06-30T06:51:08.913Z,31.56
2023-06-30T06:53:40.600Z,31.60
2023-06-30T06:56:07.577Z,31.58
2023-06-30T06:58:36.939Z,30.21
2023-06-30T07:01:03.974Z,31.13
2023-06-30T07:03:31.086Z,30.98
2023-06-30T07:05:59.177Z,31.66
2023-06-30T07:08:26.749Z,31.87
2023-06-30T07:10:53.909Z,32.31
2023-06-30T07:13:22.654Z,32.48
2023-06-30T07:15:50.327Z,31.92
2023-06-30T07:18:21.247Z,31.26
2023-06-30T07:20:52.690Z,31.72
2023-06-30T07:23:20.089Z,30.97
2023-06-30T07:25:48.421Z,32.00
2023-06-30T07:28:15.830Z,31.81
2023-06-30T07:30:46.717Z,31.39
2023-06-30T07:33:14.344Z,32.35
2023-06-30T07:35:45.143Z,33.36
2023-06-30T07:38:12.717Z,33.70
2023-06-30T07:40:55.148Z,34.43
2023-06-30T07:43:23.552Z,34.87
2023-06-30T07:45:53.362Z,35.23
2023-06-30T07:48:20.646Z,34.92
2023-06-30T07:50:59.524Z,35.28
2023-06-30T07:53:37.093Z,35.75
2023-06-30T07:56:04.212Z,35.94
2023-06-30T07:58:34.097Z,36.12
2023-06-30T08:01:01.166Z,36.47
2023-06-30T08:03:29.554Z,36.32
2023-06-30T08:05:58.240Z,36.46
2023-06-30T08:08:25.470Z,36.36
2023-06-30T08:10:52.532Z,37.09
2023-06-30T08:13:19.550Z,36.84
2023-06-30T08:15:49.121Z,36.19
2023-06-30T08:18:31.696Z,36.00
2023-06-30T08:21:01.045Z,36.41
2023-06-30T08:23:28.185Z,36.57
2023-06-30T08:25:56.645Z,36.74
2023-06-30T08:28:23.836Z,36.82
2023-06-30T08:30:51.670Z,37.68
2023-06-30T08:33:30.748Z,37.75
2023-06-30T08:36:06.151Z,37.71
2023-06-30T08:38:33.174Z,37.94
2023-06-30T08:41:01.990Z,38.39
2023-06-30T08:43:30.748Z,38.36
2023-06-30T08:46:02.907Z,38.65
2023-06-30T08:48:32.029Z,38.16
2023-06-30T08:51:00.526Z,38.05
2023-06-30T08:53:30.651Z,38.34
2023-06-30T08:56:01.000Z,38.45
2023-06-30T08:58:31.181Z,38.55
2023-06-30T09:00:58.449Z,38.06
2023-06-30T09:03:25.809Z,38.26
2023-06-30T09:05:56.704Z,36.40
2023-06-30T09:08:28.662Z,34.99
2023-06-30T09:10:57.335Z,35.38
2023-06-30T09:13:25.524Z,35.96
2023-06-30T09:15:56.863Z,35.58
2023-06-30T09:18:27.102Z,36.28
2023-06-30T09:20:54.596Z,36.97
2023-06-30T09:23:21.728Z,37.72
2023-06-30T09:25:49.290Z,38.21
2023-06-30T09:28:17.486Z,38.47
2023-06-30T09:30:46.820Z,38.89
2023-06-30T09:33:22.149Z,39.01
2023-06-30T09:35:49.925Z,39.07
2023-06-30T09:38:19.731Z,39.61
2023-06-30T09:40:49.508Z,38.84
2023-06-30T09:43:18.583Z,39.65
2023-06-30T09:45:56.198Z,38.50
2023-06-30T09:48:46.702Z,39.33
2023-06-30T09:51:20.666Z,39.45
2023-06-30T09:53:48.102Z,39.84
2023-06-30T09:56:25.518Z,40.14
2023-06-30T09:58:58.575Z,40.36
2023-06-30T10:01:25.852Z,40.65
2023-06-30T10:03:56.525Z,40.65
2023-06-30T10:06:28.098Z,40.38
2023-06-30T10:08:59.090Z,38.37
2023-06-30T10:11:32.068Z,39.44
2023-06-30T10:14:00.765Z,39.22
2023-06-30T10:16:28.012Z,39.84
2023-06-30T10:18:57.321Z,39.19
2023-06-30T10:21:24.453Z,39.60
2023-06-30T10:23:52.342Z,40.12
2023-06-30T10:26:23.105Z,40.14
2023-06-30T10:28:52.458Z,39.67
2023-06-30T10:31:19.538Z,37.98
2023-06-30T10:33:49.707Z,38.31
2023-06-30T10:36:19.120Z,37.61
2023-06-30T10:38:48.302Z,37.10
2023-06-30T10:41:21.317Z,36.72
2023-06-30T10:44:03.655Z,36.99
2023-06-30T10:46:49.084Z,36.33
2023-06-30T10:49:19.168Z,36.56
2023-06-30T10:51:51.312Z,36.53
2023-06-30T10:54:31.571Z,36.71
2023-06-30T10:57:13.082Z,35.78
2023-06-30T10:59:43.022Z,36.17
2023-06-30T11:02:19.113Z,36.65
2023-06-30T11:04:47.857Z,37.28
2023-06-30T11:07:18.706Z,38.17
2023-06-30T11:09:48.909Z,37.91
2023-06-30T11:12:20.256Z,38.48
2023-06-30T11:15:05.072Z,39.18
2023-06-30T11:18:00.786Z,39.44
2023-06-30T11:20:33.954Z,39.99
2023-06-30T11:23:06.945Z,40.20
2023-06-30T11:25:40.711Z,40.06
2023-06-30T11:28:10.360Z,40.64
2023-06-30T11:30:40.075Z,41.00
2023-06-30T11:33:08.570Z,40.90
2023-06-30T11:35:37.197Z,41.29
2023-06-30T11:38:07.123Z,41.76
2023-06-30T11:41:11.359Z,41.80
2023-06-30T11:44:11.768Z,42.19
2023-06-30T11:46:58.754Z,42.03
2023-06-30T11:49:44.117Z,42.01
2023-06-30T11:52:11.409Z,41.64
2023-06-30T11:54:44.052Z,42.09
2023-06-30T11:57:11.403Z,42.06
2023-06-30T11:59:41.416Z,42.14
2023-06-30T12:02:11.709Z,42.24
2023-06-30T12:04:48.326Z,42.36
2023-06-30T12:07:25.150Z,42.29
2023-06-30T12:10:07.785Z,41.97
2023-06-30T12:12:34.904Z,41.96
2023-06-30T12:15:17.544Z,40.40
2023-06-30T12:17:44.764Z,39.97
2023-06-30T12:20:12.925Z,39.22
2023-06-30T12:22:46.077Z,39.28
2023-06-30T12:25:13.413Z,39.46
2023-06-30T12:27:43.562Z,39.58
2023-06-30T12:30:18.390Z,38.37
2023-06-30T12:32:46.215Z,38.10
2023-06-30T12:35:13.711Z,38.68
2023-06-30T12:37:40.790Z,39.22
2023-06-30T12:40:09.627Z,39.57
2023-06-30T12:42:40.106Z,39.78
2023-06-30T12:45:07.952Z,40.03
2023-06-30T12:47:35.102Z,38.47
2023-06-30T12:50:02.016Z,39.17
2023-06-30T12:52:29.103Z,37.62
2023-06-30T12:54:56.334Z,38.42
2023-06-30T12:57:23.309Z,37.02
2023-06-30T12:59:50.298Z,37.27
2023-06-30T13:02:17.272Z,36.63
2023-06-30T13:04:44.286Z,36.67
2023-06-30T13:07:11.249Z,37.58
2023-06-30T13:09:38.255Z,38.15
2023-06-30T13:12:09.061Z,37.77
2023-06-30T13:14:36.077Z,37.97
2023-06-30T13:17:03.164Z,38.00
2023-06-30T13:19:30.218Z,38.30
2023-06-30T13:21:57.247Z,38.42
2023-06-30T13:24:27.716Z,38.79
2023-06-30T13:26:55.766Z,39.17
2023-06-30T13:29:22.873Z,39.30
2023-06-30T13:31:50.334Z,39.79
2023-06-30T13:34:17.656Z,39.31
2023-06-30T13:36:44.722Z,40.05
2023-06-30T13:39:15.201Z,39.06
2023-06-30T13:41:44.635Z,39.30
2023-06-30T13:44:11.816Z,39.19
2023-06-30T13:46:40.334Z,39.49
2023-06-30T13:49:07.619Z,39.45
2023-06-30T13:51:38.603Z,39.92
2023-06-30T13:54:05.665Z,40.14
2023-06-30T13:56:32.686Z,40.02
2023-06-30T13:58:59.760Z,40.38
2023-06-30T14:01:28.060Z,40.48
2023-06-30T14:03:56.279Z,40.33
2023-06-30T14:06:23.438Z,39.50
2023-06-30T14:08:50.611Z,38.97
2023-06-30T14:11:19.175Z,38.97
2023-06-30T14:13:46.669Z,39.30
2023-06-30T14:16:13.753Z,39.17
2023-06-30T14:18:40.895Z,39.42
2023-06-30T14:21:07.936Z,38.76
2023-06-30T14:23:34.929Z,39.16
2023-06-30T14:26:02.161Z,39.24
2023-06-30T14:28:29.234Z,39.29
2023-06-30T14:30:56.435Z,39.01
2023-06-30T14:33:23.511Z,39.45
2023-06-30T14:35:50.529Z,39.37
2023-06-30T14:38:18.621Z,39.26
2023-06-30T14:40:47.092Z,39.43
2023-06-30T14:43:14.283Z,39.23
2023-06-30T14:45:41.322Z,38.66
2023-06-30T14:48:09.773Z,38.88
2023-06-30T14:50:37.888Z,38.91
2023-06-30T14:53:05.004Z,38.85
2023-06-30T14:55:32.115Z,38.51
2023-06-30T14:57:59.143Z,38.97
2023-06-30T15:00:26.170Z,37.50
2023-06-30T15:02:53.366Z,38.34
2023-06-30T15:05:20.573Z,38.46
2023-06-30T15:07:48.052Z,37.83
2023-06-30T15:10:15.308Z,37.56
2023-06-30T15:12:42.375Z,37.68
2023-06-30T15:15:09.759Z,37.81
2023-06-30T15:17:37.084Z,37.78
2023-06-30T15:20:04.504Z,37.66
2023-06-30T15:22:32.354Z,37.63
2023-06-30T15:25:00.478Z,37.83
2023-06-30T15:27:27.997Z,37.83
2023-06-30T15:29:55.177Z,37.85
2023-06-30T15:32:22.517Z,37.32
2023-06-30T15:34:49.769Z,37.04
2023-06-30T15:37:16.857Z,37.27
2023-06-30T15:39:43.900Z,37.21
2023-06-30T15:42:11.001Z,37.29
2023-06-30T15:44:38.128Z,37.27
2023-06-30T15:47:05.199Z,37.02
2023-06-30T15:49:32.267Z,37.23
2023-06-30T15:51:59.281Z,37.15
2023-06-30T15:54:26.322Z,37.05
2023-06-30T15:56:53.317Z,36.87
2023-06-30T15:59:20.426Z,36.88
2023-06-30T16:01:47.451Z,36.80
2023-06-30T16:04:14.468Z,36.79
2023-06-30T16:06:41.472Z,36.71
2023-06-30T16:09:08.545Z,36.57
2023-06-30T16:11:35.557Z,36.37
2023-06-30T16:14:02.595Z,36.40
2023-06-30T16:16:30.466Z,36.26
2023-06-30T16:18:57.624Z,36.21
2023-06-30T16:21:24.677Z,36.14
2023-06-30T16:23:51.993Z,35.93
2023-06-30T16:26:21.863Z,35.88
2023-06-30T16:28:49.627Z,35.56
2023-06-30T16:31:16.813Z,35.50
2023-06-30T16:33:44.112Z,35.40
2023-06-30T16:36:11.304Z,35.33
2023-06-30T16:38:40.932Z,35.28
2023-06-30T16:41:08.018Z,35.35
2023-06-30T16:43:35.038Z,35.20
2023-06-30T16:46:02.081Z,35.28
2023-06-30T16:48:29.151Z,35.16
2023-06-30T16:50:56.099Z,35.09
2023-06-30T16:53:24.941Z,35.02
2023-06-30T16:55:51.996Z,34.96
2023-06-30T16:58:19.205Z,34.92
2023-06-30T17:00:46.332Z,34.60
2023-06-30T17:03:13.542Z,34.67
2023-06-30T17:05:40.747Z,34.68
2023-06-30T17:08:07.894Z,34.57
2023-06-30T17:10:35.094Z,34.38
2023-06-30T17:13:04.598Z,34.47
2023-06-30T17:15:32.292Z,34.36
2023-06-30T17:18:00.182Z,34.28
2023-06-30T17:20:27.352Z,34.23
2023-06-30T17:22:54.329Z,34.09
2023-06-30T17:25:21.473Z,34.01
2023-06-30T17:27:48.589Z,33.95
2023-06-30T17:30:15.643Z,33.84
2023-06-30T17:32:42.887Z,33.76
2023-06-30T17:35:10.058Z,33.68
2023-06-30T17:37:37.081Z,33.55
2023-06-30T17:40:04.529Z,33.47
2023-06-30T17:42:31.537Z,33.30
2023-06-30T17:44:58.645Z,33.15
2023-06-30T17:47:25.806Z,33.20
2023-06-30T17:49:52.899Z,32.98
2023-06-30T17:52:19.990Z,32.94
2023-06-30T17:54:47.376Z,32.68
2023-06-30T17:57:14.795Z,32.66
2023-06-30T17:59:41.781Z,32.55
2023-06-30T18:02:08.841Z,32.58
2023-06-30T18:04:36.285Z,32.41
2023-06-30T18:07:06.041Z,32.47
2023-06-30T18:09:34.788Z,32.29
2023-06-30T18:12:02.812Z,32.04
2023-06-30T18:14:31.197Z,31.72
2023-06-30T18:16:59.320Z,31.66
2023-06-30T18:19:26.674Z,31.54
2023-06-30T18:21:54.507Z,31.56
2023-06-30T18:24:22.304Z,31.43
2023-06-30T18:26:49.879Z,31.25
2023-06-30T18:29:18.804Z,31.07
2023-06-30T18:31:45.840Z,31.14
2023-06-30T18:34:12.851Z,30.95
2023-06-30T18:36:39.920Z,30.76
2023-06-30T18:39:06.892Z,30.81
2023-06-30T18:41:34.002Z,30.86
2023-06-30T18:44:00.997Z,30.78
2023-06-30T18:46:30.857Z,30.85
2023-06-30T18:48:58.026Z,30.51
2023-06-30T18:51:29.290Z,30.48
2023-06-30T18:53:57.287Z,30.37
2023-06-30T18:56:24.640Z,30.16
2023-06-30T18:58:58.948Z,30.13
2023-06-30T19:01:27.044Z,30.02
2023-06-30T19:03:54.622Z,29.82
2023-06-30T19:06:24.054Z,29.78
2023-06-30T19:08:51.638Z,29.64
2023-06-30T19:11:18.674Z,29.47
2023-06-30T19:13:45.869Z,29.34
2023-06-30T19:16:13.128Z,29.17
2023-06-30T19:18:40.430Z,29.06
2023-06-30T19:21:11.278Z,28.93
2023-06-30T19:23:39.657Z,29.16
2023-06-30T19:26:06.849Z,28.93
2023-06-30T19:28:34.685Z,28.91
2023-06-30T19:31:01.728Z,28.86
2023-06-30T19:33:35.345Z,28.66
2023-06-30T19:36:02.341Z,28.70
2023-06-30T19:38:29.565Z,28.60
2023-06-30T19:40:57.174Z,28.55
2023-06-30T19:43:24.596Z,28.41
2023-06-30T19:45:52.140Z,28.02
2023-06-30T19:48:23.186Z,28.11
2023-06-30T19:50:50.181Z,27.97
2023-06-30T19:53:17.195Z,27.97
2023-06-30T19:55:44.469Z,27.99
2023-06-30T19:58:11.849Z,28.00
2023-06-30T20:00:39.656Z,27.98
2023-06-30T20:03:07.008Z,27.97
2023-06-30T20:05:34.260Z,27.82
2023-06-30T20:08:01.190Z,27.92
2023-06-30T20:10:28.343Z,27.96
2023-06-30T20:12:55.453Z,27.93
2023-06-30T20:15:22.316Z,27.79
2023-06-30T20:17:49.378Z,27.76
2023-06-30T20:20:16.613Z,27.78
2023-06-30T20:22:43.722Z,27.75
2023-06-30T20:25:11.276Z,27.52
2023-06-30T20:27:40.125Z,27.31
2023-06-30T20:30:10.003Z,27.28
2023-06-30T20:32:36.951Z,27.17
2023-06-30T20:35:04.102Z,27.06
2023-06-30T20:37:31.131Z,27.03
2023-06-30T20:39:58.063Z,27.09
2023-06-30T20:42:25.116Z,27.03
2023-06-30T20:44:52.127Z,26.92
2023-06-30T20:47:19.270Z,26.94
2023-06-30T20:49:46.228Z,26.94
2023-06-30T20:52:14.438Z,26.81
2023-06-30T20:54:41.429Z,26.83
2023-06-30T20:57:08.510Z,26.78
2023-06-30T20:59:35.506Z,26.84
2023-06-30T21:02:03.356Z,26.84
2023-06-30T21:04:30.558Z,26.77
2023-06-30T21:06:57.729Z,26.70
2023-06-30T21:09:24.638Z,26.72
2023-06-30T21:11:51.645Z,26.65
2023-06-30T21:14:21.576Z,26.61
2023-06-30T21:16:49.447Z,26.38
2023-06-30T21:19:17.072Z,26.24
2023-06-30T21:21:44.170Z,26.24
2023-06-30T21:24:11.502Z,26.32
2023-06-30T21:26:39.375Z,26.24
2023-06-30T21:29:06.499Z,26.09
2023-06-30T21:31:33.558Z,25.76
2023-06-30T21:34:00.641Z,25.65
2023-06-30T21:36:27.958Z,25.55
2023-06-30T21:38:55.139Z,25.70
2023-06-30T21:41:23.083Z,25.69
2023-06-30T21:43:50.125Z,25.61
2023-06-30T21:46:17.990Z,25.42
2023-06-30T21:48:45.019Z,25.35
2023-06-30T21:51:12.006Z,25.37
2023-06-30T21:53:39.064Z,25.23
2023-06-30T21:56:06.156Z,25.24
2023-06-30T21:58:33.398Z,25.09
2023-06-30T22:01:00.372Z,25.08
2023-06-30T22:03:27.599Z,24.91
2023-06-30T22:05:56.535Z,24.93
2023-06-30T22:08:26.637Z,24.89
2023-06-30T22:10:53.782Z,24.88
2023-06-30T22:13:20.961Z,24.74
2023-06-30T22:15:48.123Z,24.86
2023-06-30T22:18:15.292Z,24.95
2023-06-30T22:20:42.663Z,24.98
2023-06-30T22:23:09.586Z,24.75
2023-06-30T22:25:36.624Z,24.16
2023-06-30T22:28:03.676Z,23.51
2023-06-30T22:30:30.643Z,24.12
2023-06-30T22:32:58.025Z,24.35
2023-06-30T22:35:24.964Z,24.30
2023-06-30T22:37:53.481Z,24.43
2023-06-30T22:40:20.807Z,24.18
2023-06-30T22:42:48.679Z,24.42
2023-06-30T22:45:15.744Z,24.35
2023-06-30T22:47:42.789Z,23.71
2023-06-30T22:50:10.108Z,23.76
2023-06-30T22:52:40.034Z,23.78
2023-06-30T22:55:10.711Z,23.84
2023-06-30T22:57:37.922Z,23.82
2023-06-30T23:00:06.375Z,23.87
2023-06-30T23:02:33.448Z,23.93
2023-06-30T23:05:00.568Z,23.95
2023-06-30T23:07:27.886Z,24.14
2023-06-30T23:09:54.796Z,23.37
2023-06-30T23:12:21.834Z,23.17
2023-06-30T23:14:48.768Z,23.37
2023-06-30T23:17:21.115Z,23.28
2023-06-30T23:19:49.241Z,23.32
2023-06-30T23:22:19.986Z,23.43
2023-06-30T23:24:51.173Z,23.35
2023-06-30T23:27:19.506Z,23.39
2023-06-30T23:29:50.353Z,23.47
2023-06-30T23:32:20.500Z,23.37
2023-06-30T23:34:49.078Z,23.58
2023-06-30T23:37:18.629Z,23.66
2023-06-30T23:39:48.535Z,23.65
2023-06-30T23:42:15.703Z,23.69
2023-06-30T23:44:42.692Z,23.76
2023-06-30T23:47:16.972Z,23.82
2023-06-30T23:49:44.201Z,23.15
2023-06-30T23:52:11.245Z,23.49
2023-06-30T23:54:38.200Z,23.07
2023-06-30T23:57:05.770Z,23.02
2023-06-30T23:59:33.124Z,22.81
